PBD611 UMKK-USSS
Flight info
| Callsign | PBD611 |
|---|---|
| Flight time | 3h 18m |
| Altitude | 33000 |
| Route | PELUG3M PELUG DCT OTVOV DCT KEDUX DCT PIVAX DCT PIRUX DCT PISIM/N0463F350 DCT PIDIN DCT ARANS/K0854F350 DCT PISIS DCT MIGTU P997 OBIBA L256 LEDBA L255 DOKOD M61 SUMOM P983 GANPO T762 BIKMA BIKMA6T |
| Aircraft | B738/M-SDE2E3FGHIRWXY/LB1 |
Departure
| Time | 2026-05-05 13:39 |
|---|---|
| Airport | Khrabrovo Airport (UMKK) |
Arrival
| Time | 2026-05-05 16:57 |
|---|---|
| Airport | Koltsovo Airport (USSS) |
| Time | Latitude | Longitude | Altitude | Speed | Heading |
|---|---|---|---|---|---|
| 2026-05-05 13:05 | 54.88348 | 20.58416 | 26 ft | 0 kts | 154° |
| 2026-05-05 13:29 | 54.88362 | 20.58404 | 31 ft | 4 kts | 152° |
| 2026-05-05 13:29 | 54.88383 | 20.58385 | 30 ft | 4 kts | 162° |
| 2026-05-05 13:30 | 54.88403 | 20.58383 | 29 ft | 4 kts | 216° |
| 2026-05-05 13:30 | 54.88416 | 20.58407 | 31 ft | 4 kts | 243° |
| 2026-05-05 13:30 | 54.88420 | 20.58420 | 30 ft | 2 kts | 239° |
| 2026-05-05 13:34 | 54.88419 | 20.58419 | 30 ft | 0 kts | 239° |
| 2026-05-05 13:34 | 54.88410 | 20.58392 | 28 ft | 4 kts | 239° |
| 2026-05-05 13:34 | 54.88394 | 20.58346 | 29 ft | 4 kts | 238° |
| 2026-05-05 13:34 | 54.88377 | 20.58300 | 27 ft | 5 kts | 238° |
| 2026-05-05 13:35 | 54.88356 | 20.58242 | 29 ft | 6 kts | 237° |
| 2026-05-05 13:35 | 54.88331 | 20.58175 | 27 ft | 7 kts | 236° |
| 2026-05-05 13:35 | 54.88305 | 20.58105 | 26 ft | 7 kts | 242° |
| 2026-05-05 13:35 | 54.88282 | 20.58017 | 29 ft | 9 kts | 245° |
| 2026-05-05 13:36 | 54.88254 | 20.57910 | 27 ft | 10 kts | 245° |
| 2026-05-05 13:36 | 54.88229 | 20.57804 | 27 ft | 9 kts | 257° |
| 2026-05-05 13:36 | 54.88260 | 20.57718 | 27 ft | 9 kts | 333° |
| 2026-05-05 13:36 | 54.88318 | 20.57674 | 25 ft | 9 kts | 335° |
| 2026-05-05 13:37 | 54.88375 | 20.57628 | 25 ft | 9 kts | 335° |
| 2026-05-05 13:37 | 54.88430 | 20.57586 | 26 ft | 9 kts | 339° |
| 2026-05-05 13:37 | 54.88488 | 20.57545 | 23 ft | 10 kts | 337° |
| 2026-05-05 13:37 | 54.88558 | 20.57529 | 19 ft | 11 kts | 42° |
| 2026-05-05 13:38 | 54.88600 | 20.57682 | 20 ft | 30 kts | 66° |
| 2026-05-05 13:38 | 54.88788 | 20.58401 | 22 ft | 98 kts | 65° |
| 2026-05-05 13:38 | 54.89155 | 20.59816 | 22 ft | 155 kts | 65° |
| 2026-05-05 13:38 | 54.89628 | 20.61783 | 227 ft | 188 kts | 65° |
| 2026-05-05 13:39 | 54.90158 | 20.63902 | 928 ft | 196 kts | 63° |
| 2026-05-05 13:39 | 54.90733 | 20.66058 | 1738 ft | 197 kts | 63° |
| 2026-05-05 13:39 | 54.91341 | 20.68240 | 2510 ft | 201 kts | 62° |
| 2026-05-05 13:39 | 54.91970 | 20.70487 | 3003 ft | 218 kts | 62° |
| 2026-05-05 13:40 | 54.93054 | 20.72467 | 3184 ft | 238 kts | 22° |
| 2026-05-05 13:40 | 54.94672 | 20.72747 | 3562 ft | 240 kts | 341° |
| 2026-05-05 13:40 | 54.96093 | 20.71243 | 3945 ft | 248 kts | 311° |
| 2026-05-05 13:40 | 54.97244 | 20.68918 | 4527 ft | 257 kts | 307° |
| 2026-05-05 13:41 | 54.98376 | 20.66516 | 5342 ft | 257 kts | 307° |
| 2026-05-05 13:41 | 54.99517 | 20.64101 | 6097 ft | 259 kts | 307° |
| 2026-05-05 13:41 | 55.00672 | 20.61681 | 6831 ft | 262 kts | 307° |
| 2026-05-05 13:41 | 55.01850 | 20.59230 | 7515 ft | 266 kts | 307° |
| 2026-05-05 13:42 | 55.03061 | 20.56728 | 8219 ft | 270 kts | 306° |
| 2026-05-05 13:42 | 55.04280 | 20.54218 | 8904 ft | 274 kts | 306° |
| 2026-05-05 13:42 | 55.05515 | 20.51679 | 9601 ft | 278 kts | 305° |
| 2026-05-05 13:42 | 55.06782 | 20.49052 | 10222 ft | 284 kts | 304° |
| 2026-05-05 13:43 | 55.08254 | 20.46597 | 10378 ft | 313 kts | 324° |
| 2026-05-05 13:43 | 55.10300 | 20.44852 | 10583 ft | 337 kts | 332° |
| 2026-05-05 13:43 | 55.12531 | 20.43201 | 10734 ft | 357 kts | 333° |
| 2026-05-05 13:43 | 55.14876 | 20.41502 | 10891 ft | 376 kts | 333° |
| 2026-05-05 13:44 | 55.17321 | 20.39717 | 11243 ft | 386 kts | 333° |
| 2026-05-05 13:44 | 55.19833 | 20.37857 | 11799 ft | 391 kts | 333° |
| 2026-05-05 13:44 | 55.22335 | 20.35977 | 12431 ft | 393 kts | 332° |
| 2026-05-05 13:44 | 55.24850 | 20.34062 | 13028 ft | 396 kts | 332° |
| 2026-05-05 13:45 | 55.27397 | 20.32104 | 13587 ft | 401 kts | 332° |
| 2026-05-05 13:45 | 55.29963 | 20.30118 | 14108 ft | 405 kts | 332° |
| 2026-05-05 13:45 | 55.32538 | 20.28119 | 14653 ft | 407 kts | 331° |
| 2026-05-05 13:45 | 55.35133 | 20.26100 | 15203 ft | 409 kts | 331° |
| 2026-05-05 13:46 | 55.37728 | 20.24076 | 15723 ft | 412 kts | 331° |
| 2026-05-05 13:46 | 55.40386 | 20.22000 | 16233 ft | 416 kts | 331° |
| 2026-05-05 13:46 | 55.43035 | 20.19927 | 16729 ft | 419 kts | 331° |
| 2026-05-05 13:46 | 55.45700 | 20.17839 | 17226 ft | 422 kts | 330° |
| 2026-05-05 13:47 | 55.48390 | 20.15729 | 17721 ft | 425 kts | 330° |
| 2026-05-05 13:47 | 55.51093 | 20.13606 | 18199 ft | 428 kts | 330° |
| 2026-05-05 13:47 | 55.53821 | 20.11460 | 18637 ft | 431 kts | 330° |
| 2026-05-05 13:47 | 55.56576 | 20.09290 | 19101 ft | 432 kts | 330° |
| 2026-05-05 13:48 | 55.59322 | 20.07125 | 19552 ft | 434 kts | 330° |
| 2026-05-05 13:48 | 55.62073 | 20.04951 | 19980 ft | 436 kts | 330° |
| 2026-05-05 13:48 | 55.64845 | 20.02758 | 20390 ft | 438 kts | 330° |
| 2026-05-05 13:48 | 55.67651 | 20.00533 | 20798 ft | 440 kts | 330° |
| 2026-05-05 13:49 | 55.70437 | 19.98320 | 21188 ft | 443 kts | 330° |
| 2026-05-05 13:49 | 55.73263 | 19.96073 | 21565 ft | 445 kts | 330° |
| 2026-05-05 13:49 | 55.76090 | 19.93820 | 21944 ft | 448 kts | 330° |
| 2026-05-05 13:49 | 55.78959 | 19.91531 | 22313 ft | 450 kts | 330° |
| 2026-05-05 13:50 | 55.81808 | 19.89254 | 22663 ft | 452 kts | 330° |
| 2026-05-05 13:50 | 55.84695 | 19.86944 | 23012 ft | 455 kts | 329° |
| 2026-05-05 13:50 | 55.87580 | 19.84631 | 23336 ft | 458 kts | 329° |
| 2026-05-05 13:50 | 55.90508 | 19.82279 | 23645 ft | 460 kts | 329° |
| 2026-05-05 13:51 | 55.93391 | 19.79960 | 23932 ft | 462 kts | 329° |
| 2026-05-05 13:51 | 55.96338 | 19.77587 | 24259 ft | 463 kts | 329° |
| 2026-05-05 13:51 | 55.99261 | 19.75229 | 24560 ft | 464 kts | 329° |
| 2026-05-05 13:51 | 56.02210 | 19.72846 | 24840 ft | 466 kts | 329° |
| 2026-05-05 13:52 | 56.05187 | 19.70434 | 25113 ft | 468 kts | 329° |
| 2026-05-05 13:52 | 56.08159 | 19.68023 | 25388 ft | 469 kts | 329° |
| 2026-05-05 13:52 | 56.11152 | 19.65592 | 25663 ft | 471 kts | 328° |
| 2026-05-05 13:52 | 56.14125 | 19.63173 | 25932 ft | 472 kts | 328° |
| 2026-05-05 13:53 | 56.17144 | 19.60751 | 26187 ft | 476 kts | 331° |
| 2026-05-05 13:53 | 56.20371 | 19.59089 | 26408 ft | 491 kts | 344° |
| 2026-05-05 13:53 | 56.23811 | 19.58650 | 26742 ft | 501 kts | 356° |
| 2026-05-05 13:53 | 56.27308 | 19.59502 | 27128 ft | 509 kts | 7° |
| 2026-05-05 13:54 | 56.30721 | 19.60985 | 27523 ft | 509 kts | 8° |
| 2026-05-05 13:54 | 56.34158 | 19.62577 | 27818 ft | 510 kts | 9° |
| 2026-05-05 13:54 | 56.36477 | 19.63660 | 28007 ft | 510 kts | 9° |
| 2026-05-05 13:54 | 56.41019 | 19.65745 | 28430 ft | 510 kts | 8° |
| 2026-05-05 13:55 | 56.43339 | 19.66785 | 28676 ft | 509 kts | 8° |
| 2026-05-05 13:55 | 56.46762 | 19.68296 | 29042 ft | 508 kts | 8° |
| 2026-05-05 13:55 | 56.50219 | 19.69800 | 29378 ft | 507 kts | 7° |
| 2026-05-05 13:55 | 56.53658 | 19.71288 | 29683 ft | 507 kts | 7° |
| 2026-05-05 13:56 | 56.57061 | 19.72760 | 29996 ft | 507 kts | 7° |
| 2026-05-05 13:56 | 56.60492 | 19.74249 | 30302 ft | 506 kts | 7° |
| 2026-05-05 13:56 | 56.63903 | 19.75735 | 30626 ft | 504 kts | 7° |
| 2026-05-05 13:56 | 56.67297 | 19.77220 | 30965 ft | 501 kts | 7° |
| 2026-05-05 13:57 | 56.70692 | 19.78708 | 31275 ft | 500 kts | 7° |
| 2026-05-05 13:57 | 56.74079 | 19.80195 | 31560 ft | 499 kts | 7° |
| 2026-05-05 13:57 | 56.77445 | 19.81676 | 31867 ft | 498 kts | 7° |
| 2026-05-05 13:57 | 56.80819 | 19.83163 | 32186 ft | 495 kts | 7° |
| 2026-05-05 13:58 | 56.84128 | 19.84625 | 32517 ft | 493 kts | 7° |
| 2026-05-05 13:58 | 56.87456 | 19.86096 | 32824 ft | 491 kts | 7° |
| 2026-05-05 13:58 | 56.94155 | 19.89063 | 32914 ft | 493 kts | 8° |
| 2026-05-05 13:59 | 57.04046 | 19.93763 | 32897 ft | 490 kts | 11° |
| 2026-05-05 14:00 | 57.13739 | 19.99480 | 32898 ft | 486 kts | 12° |
| 2026-05-05 14:00 | 57.20202 | 20.03318 | 32904 ft | 485 kts | 12° |
| 2026-05-05 14:01 | 57.26623 | 20.07077 | 32908 ft | 485 kts | 12° |
| 2026-05-05 14:01 | 57.33094 | 20.10851 | 32905 ft | 487 kts | 12° |
| 2026-05-05 14:02 | 57.39553 | 20.14630 | 32902 ft | 489 kts | 12° |
| 2026-05-05 14:02 | 57.46073 | 20.18463 | 32903 ft | 491 kts | 12° |
| 2026-05-05 14:03 | 57.52577 | 20.22305 | 32905 ft | 493 kts | 12° |
| 2026-05-05 14:03 | 57.59105 | 20.26175 | 32906 ft | 494 kts | 12° |
| 2026-05-05 14:04 | 57.65653 | 20.30073 | 32898 ft | 494 kts | 12° |
| 2026-05-05 14:04 | 57.72198 | 20.33983 | 32899 ft | 494 kts | 12° |
| 2026-05-05 14:05 | 57.78746 | 20.37910 | 32896 ft | 493 kts | 12° |
| 2026-05-05 14:05 | 57.85241 | 20.41819 | 32898 ft | 492 kts | 12° |
| 2026-05-05 14:06 | 57.91805 | 20.45785 | 32900 ft | 492 kts | 12° |
| 2026-05-05 14:06 | 57.98296 | 20.49721 | 32893 ft | 492 kts | 12° |
| 2026-05-05 14:07 | 58.04801 | 20.53681 | 32890 ft | 492 kts | 12° |
| 2026-05-05 14:07 | 58.11327 | 20.57669 | 32890 ft | 492 kts | 11° |
| 2026-05-05 14:08 | 58.17843 | 20.61666 | 32886 ft | 492 kts | 11° |
| 2026-05-05 14:08 | 58.24356 | 20.65676 | 32889 ft | 493 kts | 11° |
| 2026-05-05 14:09 | 58.30848 | 20.69690 | 32890 ft | 493 kts | 11° |
| 2026-05-05 14:09 | 58.37383 | 20.73745 | 32883 ft | 494 kts | 11° |
| 2026-05-05 14:10 | 58.43938 | 20.77829 | 32882 ft | 495 kts | 11° |
| 2026-05-05 14:10 | 58.50510 | 20.81940 | 32879 ft | 496 kts | 11° |
| 2026-05-05 14:11 | 58.57088 | 20.86071 | 32879 ft | 497 kts | 11° |
| 2026-05-05 14:11 | 58.63643 | 20.90205 | 32877 ft | 498 kts | 11° |
| 2026-05-05 14:12 | 58.70216 | 20.94365 | 32877 ft | 498 kts | 11° |
| 2026-05-05 14:12 | 58.76819 | 20.98562 | 32873 ft | 499 kts | 11° |
| 2026-05-05 14:13 | 58.83416 | 21.02772 | 32872 ft | 499 kts | 11° |
| 2026-05-05 14:13 | 58.90035 | 21.07014 | 32871 ft | 499 kts | 11° |
| 2026-05-05 14:14 | 58.96620 | 21.11249 | 32871 ft | 499 kts | 11° |
| 2026-05-05 14:14 | 59.03059 | 21.16512 | 32860 ft | 515 kts | 30° |
| 2026-05-05 14:15 | 59.05782 | 21.21056 | 32870 ft | 524 kts | 44° |
| 2026-05-05 14:15 | 59.07920 | 21.26852 | 32863 ft | 530 kts | 60° |
| 2026-05-05 14:15 | 59.11176 | 21.39689 | 32862 ft | 530 kts | 63° |
| 2026-05-05 14:16 | 59.14360 | 21.52619 | 32857 ft | 530 kts | 63° |
| 2026-05-05 14:16 | 59.17617 | 21.65530 | 32857 ft | 529 kts | 62° |
| 2026-05-05 14:17 | 59.20894 | 21.78366 | 32861 ft | 529 kts | 62° |
| 2026-05-05 14:17 | 59.24180 | 21.91280 | 32859 ft | 529 kts | 62° |
| 2026-05-05 14:18 | 59.27416 | 22.04098 | 32860 ft | 529 kts | 62° |
| 2026-05-05 14:18 | 59.30654 | 22.17015 | 32856 ft | 529 kts | 63° |
| 2026-05-05 14:19 | 59.33879 | 22.29961 | 32860 ft | 529 kts | 63° |
| 2026-05-05 14:19 | 59.37105 | 22.42982 | 32857 ft | 529 kts | 63° |
| 2026-05-05 14:20 | 59.40294 | 22.55934 | 32851 ft | 529 kts | 63° |
| 2026-05-05 14:20 | 59.43456 | 22.68848 | 32850 ft | 529 kts | 63° |
| 2026-05-05 14:21 | 59.46636 | 22.81916 | 32848 ft | 529 kts | 63° |
| 2026-05-05 14:21 | 59.49792 | 22.94961 | 32845 ft | 530 kts | 63° |
| 2026-05-05 14:22 | 59.52954 | 23.08107 | 32845 ft | 530 kts | 63° |
| 2026-05-05 14:22 | 59.55931 | 23.21464 | 32836 ft | 531 kts | 70° |
| 2026-05-05 14:23 | 59.58162 | 23.35343 | 32836 ft | 531 kts | 73° |
| 2026-05-05 14:23 | 59.60271 | 23.49350 | 32836 ft | 531 kts | 73° |
| 2026-05-05 14:24 | 59.62416 | 23.63222 | 32830 ft | 531 kts | 73° |
| 2026-05-05 14:24 | 59.64620 | 23.77269 | 32828 ft | 531 kts | 73° |
| 2026-05-05 14:25 | 59.66797 | 23.91210 | 32820 ft | 531 kts | 73° |
| 2026-05-05 14:25 | 59.68951 | 24.05154 | 32820 ft | 531 kts | 73° |
| 2026-05-05 14:26 | 59.71099 | 24.19199 | 32814 ft | 531 kts | 73° |
| 2026-05-05 14:26 | 59.73228 | 24.33228 | 32811 ft | 531 kts | 73° |
| 2026-05-05 14:27 | 59.75328 | 24.47205 | 32806 ft | 531 kts | 74° |
| 2026-05-05 14:27 | 59.77205 | 24.61404 | 32804 ft | 531 kts | 77° |
| 2026-05-05 14:28 | 59.78948 | 24.75617 | 32801 ft | 531 kts | 77° |
| 2026-05-05 14:28 | 59.80697 | 24.89792 | 32797 ft | 531 kts | 77° |
| 2026-05-05 14:29 | 59.82479 | 25.04107 | 32798 ft | 531 kts | 77° |
| 2026-05-05 14:29 | 59.84239 | 25.18317 | 32793 ft | 531 kts | 77° |
| 2026-05-05 14:30 | 59.85990 | 25.32612 | 32789 ft | 530 kts | 77° |
| 2026-05-05 14:30 | 59.87711 | 25.46825 | 32790 ft | 530 kts | 77° |
| 2026-05-05 14:31 | 59.89431 | 25.61177 | 32786 ft | 530 kts | 77° |
| 2026-05-05 14:31 | 59.91126 | 25.75458 | 32781 ft | 530 kts | 77° |
| 2026-05-05 14:32 | 59.92532 | 25.87419 | 32785 ft | 530 kts | 77° |
| 2026-05-05 14:32 | 59.94197 | 26.01688 | 32787 ft | 530 kts | 78° |
| 2026-05-05 14:33 | 59.95842 | 26.15967 | 32780 ft | 530 kts | 78° |
| 2026-05-05 14:33 | 59.97477 | 26.30317 | 32776 ft | 530 kts | 78° |
| 2026-05-05 14:34 | 59.99104 | 26.44741 | 32776 ft | 530 kts | 78° |
| 2026-05-05 14:34 | 60.00704 | 26.59076 | 32770 ft | 529 kts | 78° |
| 2026-05-05 14:35 | 60.02296 | 26.73490 | 32771 ft | 529 kts | 78° |
| 2026-05-05 14:35 | 60.03869 | 26.87864 | 32767 ft | 529 kts | 78° |
| 2026-05-05 14:36 | 60.04952 | 27.02319 | 32753 ft | 526 kts | 92° |
| 2026-05-05 14:36 | 60.04519 | 27.16891 | 32765 ft | 522 kts | 98° |
| 2026-05-05 14:37 | 60.03918 | 27.31311 | 32764 ft | 522 kts | 98° |
| 2026-05-05 14:37 | 60.03355 | 27.45871 | 32762 ft | 523 kts | 98° |
| 2026-05-05 14:38 | 60.02826 | 27.60295 | 32756 ft | 523 kts | 97° |
| 2026-05-05 14:38 | 60.02287 | 27.74794 | 32756 ft | 523 kts | 98° |
| 2026-05-05 14:39 | 60.01727 | 27.89307 | 32754 ft | 523 kts | 98° |
| 2026-05-05 14:39 | 60.01148 | 28.03829 | 32754 ft | 522 kts | 98° |
| 2026-05-05 14:40 | 60.00554 | 28.18314 | 32755 ft | 522 kts | 98° |
| 2026-05-05 14:40 | 59.99947 | 28.32713 | 32756 ft | 521 kts | 98° |
| 2026-05-05 14:41 | 59.99325 | 28.47119 | 32758 ft | 521 kts | 98° |
| 2026-05-05 14:41 | 59.98684 | 28.61608 | 32753 ft | 520 kts | 98° |
| 2026-05-05 14:42 | 59.98033 | 28.75976 | 32754 ft | 519 kts | 98° |
| 2026-05-05 14:42 | 59.97422 | 28.90339 | 32758 ft | 519 kts | 97° |
| 2026-05-05 14:43 | 59.96933 | 29.04667 | 32753 ft | 518 kts | 97° |
| 2026-05-05 14:43 | 59.96443 | 29.18975 | 32755 ft | 518 kts | 97° |
| 2026-05-05 14:44 | 59.95915 | 29.33309 | 32758 ft | 517 kts | 97° |
| 2026-05-05 14:44 | 59.95362 | 29.47608 | 32754 ft | 516 kts | 97° |
| 2026-05-05 14:45 | 59.94791 | 29.61929 | 32756 ft | 516 kts | 97° |
| 2026-05-05 14:45 | 59.94211 | 29.76127 | 32749 ft | 515 kts | 97° |
| 2026-05-05 14:46 | 59.93613 | 29.90397 | 32744 ft | 515 kts | 98° |
| 2026-05-05 14:46 | 59.92999 | 30.04672 | 32755 ft | 514 kts | 98° |
| 2026-05-05 14:47 | 59.92374 | 30.18858 | 32741 ft | 514 kts | 98° |
| 2026-05-05 14:47 | 59.91733 | 30.33050 | 32749 ft | 513 kts | 98° |
| 2026-05-05 14:48 | 59.91077 | 30.47271 | 32743 ft | 513 kts | 98° |
| 2026-05-05 14:48 | 59.90462 | 30.61334 | 32736 ft | 513 kts | 94° |
| 2026-05-05 14:49 | 59.90573 | 30.75594 | 32731 ft | 515 kts | 89° |
| 2026-05-05 14:49 | 59.90850 | 30.89843 | 32731 ft | 514 kts | 90° |
| 2026-05-05 14:50 | 59.91042 | 31.04037 | 32730 ft | 513 kts | 91° |
| 2026-05-05 14:50 | 59.91176 | 31.18272 | 32725 ft | 512 kts | 91° |
| 2026-05-05 14:51 | 59.91297 | 31.32412 | 32722 ft | 511 kts | 91° |
| 2026-05-05 14:51 | 59.91377 | 31.46536 | 32719 ft | 510 kts | 91° |
| 2026-05-05 14:52 | 59.91418 | 31.60675 | 32722 ft | 509 kts | 92° |
| 2026-05-05 14:52 | 59.91448 | 31.74824 | 32718 ft | 509 kts | 92° |
| 2026-05-05 14:53 | 59.91468 | 31.88939 | 32719 ft | 509 kts | 92° |
| 2026-05-05 14:53 | 59.91476 | 32.03055 | 32714 ft | 508 kts | 92° |
| 2026-05-05 14:54 | 59.91585 | 32.17129 | 32711 ft | 509 kts | 89° |
| 2026-05-05 14:54 | 59.91958 | 32.31178 | 32706 ft | 508 kts | 89° |
| 2026-05-05 14:55 | 59.92254 | 32.45240 | 32711 ft | 508 kts | 90° |
| 2026-05-05 14:55 | 59.92516 | 32.59405 | 32704 ft | 508 kts | 90° |
| 2026-05-05 14:56 | 59.92765 | 32.73395 | 32706 ft | 507 kts | 90° |
| 2026-05-05 14:56 | 59.93006 | 32.87532 | 32701 ft | 507 kts | 90° |
| 2026-05-05 14:57 | 59.93231 | 33.01473 | 32698 ft | 507 kts | 90° |
| 2026-05-05 14:57 | 59.93433 | 33.15519 | 32700 ft | 506 kts | 92° |
| 2026-05-05 14:58 | 59.92691 | 33.29414 | 32711 ft | 501 kts | 103° |
| 2026-05-05 14:58 | 59.91511 | 33.43098 | 32704 ft | 500 kts | 103° |
| 2026-05-05 14:59 | 59.90337 | 33.56734 | 32691 ft | 500 kts | 103° |
| 2026-05-05 14:59 | 59.89192 | 33.70427 | 32703 ft | 500 kts | 103° |
| 2026-05-05 15:00 | 59.88246 | 33.81790 | 32703 ft | 500 kts | 103° |
| 2026-05-05 15:00 | 59.86906 | 33.97694 | 32701 ft | 500 kts | 103° |
| 2026-05-05 15:01 | 59.85739 | 34.11323 | 32699 ft | 500 kts | 103° |
| 2026-05-05 15:01 | 59.84559 | 34.24913 | 32702 ft | 499 kts | 103° |
| 2026-05-05 15:02 | 59.83361 | 34.38534 | 32704 ft | 499 kts | 103° |
| 2026-05-05 15:02 | 59.82151 | 34.52129 | 32703 ft | 499 kts | 103° |
| 2026-05-05 15:03 | 59.80930 | 34.65682 | 32707 ft | 498 kts | 103° |
| 2026-05-05 15:03 | 59.79690 | 34.79275 | 32709 ft | 498 kts | 103° |
| 2026-05-05 15:04 | 59.78444 | 34.92780 | 32707 ft | 498 kts | 104° |
| 2026-05-05 15:04 | 59.77179 | 35.06327 | 32706 ft | 498 kts | 104° |
| 2026-05-05 15:05 | 59.75261 | 35.26581 | 32717 ft | 498 kts | 104° |
| 2026-05-05 15:06 | 59.74004 | 35.40064 | 32721 ft | 499 kts | 100° |
| 2026-05-05 15:06 | 59.73386 | 35.53763 | 32713 ft | 501 kts | 96° |
| 2026-05-05 15:07 | 59.72949 | 35.67555 | 32720 ft | 501 kts | 96° |
| 2026-05-05 15:07 | 59.72455 | 35.81301 | 32722 ft | 501 kts | 97° |
| 2026-05-05 15:08 | 59.71899 | 35.95044 | 32717 ft | 501 kts | 97° |
| 2026-05-05 15:08 | 59.71319 | 36.08757 | 32723 ft | 500 kts | 97° |
| 2026-05-05 15:09 | 59.70726 | 36.22494 | 32723 ft | 500 kts | 97° |
| 2026-05-05 15:09 | 59.70221 | 36.33970 | 32722 ft | 500 kts | 97° |
| 2026-05-05 15:10 | 59.69609 | 36.47617 | 32729 ft | 499 kts | 97° |
| 2026-05-05 15:10 | 59.68985 | 36.61259 | 32732 ft | 498 kts | 97° |
| 2026-05-05 15:11 | 59.68340 | 36.74929 | 32732 ft | 497 kts | 98° |
| 2026-05-05 15:11 | 59.67680 | 36.88526 | 32736 ft | 496 kts | 98° |
| 2026-05-05 15:12 | 59.67008 | 37.02132 | 32735 ft | 496 kts | 98° |
| 2026-05-05 15:12 | 59.66323 | 37.15726 | 32734 ft | 495 kts | 98° |
| 2026-05-05 15:13 | 59.65625 | 37.29309 | 32743 ft | 494 kts | 98° |
| 2026-05-05 15:13 | 59.64920 | 37.42744 | 32742 ft | 493 kts | 98° |
| 2026-05-05 15:14 | 59.64196 | 37.56288 | 32744 ft | 493 kts | 98° |
| 2026-05-05 15:14 | 59.63461 | 37.69758 | 32747 ft | 492 kts | 98° |
| 2026-05-05 15:15 | 59.62715 | 37.83213 | 32749 ft | 492 kts | 98° |
| 2026-05-05 15:15 | 59.61956 | 37.96620 | 32750 ft | 492 kts | 98° |
| 2026-05-05 15:16 | 59.61179 | 38.10068 | 32755 ft | 492 kts | 98° |
| 2026-05-05 15:16 | 59.60396 | 38.23398 | 32754 ft | 491 kts | 99° |
| 2026-05-05 15:17 | 59.59594 | 38.36849 | 32753 ft | 491 kts | 99° |
| 2026-05-05 15:17 | 59.58783 | 38.50203 | 32756 ft | 491 kts | 99° |
| 2026-05-05 15:18 | 59.57957 | 38.63587 | 32756 ft | 490 kts | 99° |
| 2026-05-05 15:18 | 59.57118 | 38.76936 | 32755 ft | 490 kts | 99° |
| 2026-05-05 15:19 | 59.56265 | 38.90304 | 32754 ft | 489 kts | 99° |
| 2026-05-05 15:19 | 59.55404 | 39.03562 | 32753 ft | 489 kts | 99° |
| 2026-05-05 15:20 | 59.54529 | 39.16838 | 32752 ft | 489 kts | 99° |
| 2026-05-05 15:20 | 59.53641 | 39.30089 | 32745 ft | 488 kts | 99° |
| 2026-05-05 15:21 | 59.52737 | 39.43384 | 32752 ft | 487 kts | 99° |
| 2026-05-05 15:21 | 59.51829 | 39.56532 | 32750 ft | 487 kts | 99° |
| 2026-05-05 15:22 | 59.50901 | 39.69776 | 32748 ft | 486 kts | 99° |
| 2026-05-05 15:22 | 59.49966 | 39.82940 | 32750 ft | 486 kts | 99° |
| 2026-05-05 15:23 | 59.49306 | 39.96248 | 32747 ft | 487 kts | 96° |
| 2026-05-05 15:23 | 59.48865 | 40.09500 | 32740 ft | 486 kts | 95° |
| 2026-05-05 15:24 | 59.48386 | 40.22796 | 32745 ft | 486 kts | 96° |
| 2026-05-05 15:24 | 59.48124 | 40.29443 | 32889 ft | 488 kts | 96° |
| 2026-05-05 15:24 | 59.47855 | 40.36066 | 33237 ft | 485 kts | 96° |
| 2026-05-05 15:24 | 59.47584 | 40.42629 | 33634 ft | 481 kts | 96° |
| 2026-05-05 15:25 | 59.47310 | 40.49180 | 33929 ft | 479 kts | 96° |
| 2026-05-05 15:25 | 59.47034 | 40.55732 | 34057 ft | 481 kts | 96° |
| 2026-05-05 15:25 | 59.46754 | 40.62322 | 34158 ft | 483 kts | 96° |
| 2026-05-05 15:25 | 59.46469 | 40.68921 | 34333 ft | 484 kts | 96° |
| 2026-05-05 15:26 | 59.46184 | 40.75445 | 34537 ft | 483 kts | 96° |
| 2026-05-05 15:26 | 59.45892 | 40.82030 | 34696 ft | 483 kts | 96° |
| 2026-05-05 15:26 | 59.45595 | 40.88653 | 34737 ft | 485 kts | 96° |
| 2026-05-05 15:27 | 59.44993 | 41.01856 | 34745 ft | 485 kts | 97° |
| 2026-05-05 15:27 | 59.44380 | 41.15045 | 34737 ft | 483 kts | 97° |
| 2026-05-05 15:28 | 59.43758 | 41.28151 | 34742 ft | 481 kts | 97° |
| 2026-05-05 15:28 | 59.43125 | 41.41189 | 34746 ft | 479 kts | 97° |
| 2026-05-05 15:29 | 59.42479 | 41.54229 | 34746 ft | 479 kts | 97° |
| 2026-05-05 15:29 | 59.41825 | 41.67177 | 34751 ft | 479 kts | 97° |
| 2026-05-05 15:30 | 59.41152 | 41.80218 | 34746 ft | 480 kts | 97° |
| 2026-05-05 15:30 | 59.40465 | 41.93297 | 34748 ft | 481 kts | 97° |
| 2026-05-05 15:31 | 59.39767 | 42.06316 | 34749 ft | 482 kts | 97° |
| 2026-05-05 15:31 | 59.39051 | 42.19454 | 34744 ft | 483 kts | 97° |
| 2026-05-05 15:32 | 59.38327 | 42.32489 | 34743 ft | 484 kts | 98° |
| 2026-05-05 15:32 | 59.37556 | 42.45599 | 34743 ft | 484 kts | 98° |
| 2026-05-05 15:33 | 59.36751 | 42.58711 | 34745 ft | 484 kts | 98° |
| 2026-05-05 15:33 | 59.35931 | 42.71892 | 34743 ft | 484 kts | 98° |
| 2026-05-05 15:34 | 59.35112 | 42.84918 | 34741 ft | 483 kts | 98° |
| 2026-05-05 15:34 | 59.34279 | 42.97987 | 34742 ft | 483 kts | 98° |
| 2026-05-05 15:35 | 59.33431 | 43.11062 | 34743 ft | 482 kts | 98° |
| 2026-05-05 15:35 | 59.32577 | 43.24024 | 34743 ft | 481 kts | 99° |
| 2026-05-05 15:36 | 59.31705 | 43.37058 | 34742 ft | 481 kts | 99° |
| 2026-05-05 15:36 | 59.30827 | 43.49983 | 34741 ft | 480 kts | 99° |
| 2026-05-05 15:37 | 59.29935 | 43.62918 | 34741 ft | 480 kts | 99° |
| 2026-05-05 15:37 | 59.29030 | 43.75850 | 34735 ft | 480 kts | 99° |
| 2026-05-05 15:38 | 59.28113 | 43.88772 | 34741 ft | 480 kts | 99° |
| 2026-05-05 15:38 | 59.27186 | 44.01653 | 34739 ft | 480 kts | 99° |
| 2026-05-05 15:39 | 59.26243 | 44.14593 | 34738 ft | 481 kts | 99° |
| 2026-05-05 15:39 | 59.25347 | 44.27564 | 34735 ft | 481 kts | 98° |
| 2026-05-05 15:40 | 59.24500 | 44.40553 | 34738 ft | 482 kts | 98° |
| 2026-05-05 15:40 | 59.23634 | 44.53557 | 34737 ft | 482 kts | 98° |
| 2026-05-05 15:41 | 59.22745 | 44.66540 | 34733 ft | 483 kts | 99° |
| 2026-05-05 15:41 | 59.21837 | 44.79559 | 34732 ft | 483 kts | 99° |
| 2026-05-05 15:42 | 59.20922 | 44.92494 | 34730 ft | 483 kts | 99° |
| 2026-05-05 15:42 | 59.19988 | 45.05521 | 34729 ft | 484 kts | 99° |
| 2026-05-05 15:43 | 59.19044 | 45.18529 | 34730 ft | 484 kts | 99° |
| 2026-05-05 15:43 | 59.18023 | 45.31486 | 34725 ft | 483 kts | 102° |
| 2026-05-05 15:44 | 59.16647 | 45.44245 | 34726 ft | 483 kts | 104° |
| 2026-05-05 15:44 | 59.15167 | 45.57004 | 34725 ft | 483 kts | 104° |
| 2026-05-05 15:45 | 59.13704 | 45.69790 | 34728 ft | 483 kts | 104° |
| 2026-05-05 15:45 | 59.12259 | 45.82561 | 34725 ft | 483 kts | 104° |
| 2026-05-05 15:46 | 59.10806 | 45.95351 | 34722 ft | 483 kts | 104° |
| 2026-05-05 15:46 | 59.09345 | 46.08079 | 34722 ft | 483 kts | 104° |
| 2026-05-05 15:47 | 59.07866 | 46.20835 | 34719 ft | 484 kts | 104° |
| 2026-05-05 15:47 | 59.06368 | 46.33631 | 34719 ft | 484 kts | 104° |
| 2026-05-05 15:48 | 59.04865 | 46.46354 | 34723 ft | 484 kts | 104° |
| 2026-05-05 15:48 | 59.03595 | 46.57013 | 34717 ft | 485 kts | 104° |
| 2026-05-05 15:49 | 59.02065 | 46.69746 | 34722 ft | 485 kts | 105° |
| 2026-05-05 15:49 | 59.00516 | 46.82520 | 34718 ft | 486 kts | 105° |
| 2026-05-05 15:50 | 58.98956 | 46.95274 | 34719 ft | 486 kts | 105° |
| 2026-05-05 15:50 | 58.97386 | 47.07997 | 34719 ft | 487 kts | 105° |
| 2026-05-05 15:51 | 58.95801 | 47.20729 | 34716 ft | 488 kts | 105° |
| 2026-05-05 15:51 | 58.94193 | 47.33539 | 34718 ft | 488 kts | 105° |
| 2026-05-05 15:52 | 58.92574 | 47.46333 | 34714 ft | 489 kts | 105° |
| 2026-05-05 15:52 | 58.91129 | 47.59178 | 34716 ft | 490 kts | 102° |
| 2026-05-05 15:53 | 58.89830 | 47.72150 | 34719 ft | 491 kts | 102° |
| 2026-05-05 15:53 | 58.88503 | 47.85049 | 34713 ft | 491 kts | 103° |
| 2026-05-05 15:54 | 58.87120 | 47.98025 | 34711 ft | 491 kts | 103° |
| 2026-05-05 15:54 | 58.85721 | 48.10939 | 34713 ft | 492 kts | 103° |
| 2026-05-05 15:55 | 58.84308 | 48.23884 | 34712 ft | 492 kts | 103° |
| 2026-05-05 15:55 | 58.82886 | 48.36802 | 34710 ft | 492 kts | 103° |
| 2026-05-05 15:56 | 58.81451 | 48.49713 | 34711 ft | 493 kts | 104° |
| 2026-05-05 15:56 | 58.80007 | 48.62666 | 34720 ft | 493 kts | 104° |
| 2026-05-05 15:57 | 58.78561 | 48.75550 | 34705 ft | 493 kts | 104° |
| 2026-05-05 15:57 | 58.77088 | 48.88500 | 34709 ft | 493 kts | 104° |
| 2026-05-05 15:58 | 58.75587 | 49.01388 | 34711 ft | 493 kts | 104° |
| 2026-05-05 15:58 | 58.74076 | 49.14267 | 34716 ft | 493 kts | 104° |
| 2026-05-05 15:59 | 58.72554 | 49.27151 | 34712 ft | 493 kts | 104° |
| 2026-05-05 15:59 | 58.71029 | 49.40022 | 34716 ft | 493 kts | 104° |
| 2026-05-05 16:00 | 58.69492 | 49.52919 | 34714 ft | 493 kts | 104° |
| 2026-05-05 16:00 | 58.67948 | 49.65754 | 34719 ft | 493 kts | 104° |
| 2026-05-05 16:01 | 58.66393 | 49.78565 | 34722 ft | 493 kts | 105° |
| 2026-05-05 16:01 | 58.64820 | 49.91406 | 34727 ft | 493 kts | 105° |
| 2026-05-05 16:02 | 58.63242 | 50.04163 | 34725 ft | 493 kts | 105° |
| 2026-05-05 16:02 | 58.61644 | 50.16977 | 34733 ft | 494 kts | 105° |
| 2026-05-05 16:03 | 58.60030 | 50.29804 | 34735 ft | 494 kts | 105° |
| 2026-05-05 16:03 | 58.58407 | 50.42607 | 34737 ft | 494 kts | 105° |
| 2026-05-05 16:04 | 58.56758 | 50.55408 | 34750 ft | 494 kts | 105° |
| 2026-05-05 16:04 | 58.55053 | 50.68143 | 34745 ft | 494 kts | 106° |
| 2026-05-05 16:05 | 58.53329 | 50.80874 | 34741 ft | 494 kts | 106° |
| 2026-05-05 16:05 | 58.51606 | 50.93550 | 34753 ft | 494 kts | 106° |
| 2026-05-05 16:06 | 58.49867 | 51.06248 | 34767 ft | 493 kts | 106° |
| 2026-05-05 16:06 | 58.48115 | 51.18946 | 34760 ft | 493 kts | 107° |
| 2026-05-05 16:07 | 58.46356 | 51.31589 | 34763 ft | 492 kts | 107° |
| 2026-05-05 16:07 | 58.44581 | 51.44256 | 34763 ft | 491 kts | 107° |
| 2026-05-05 16:08 | 58.42804 | 51.56842 | 34772 ft | 490 kts | 107° |
| 2026-05-05 16:08 | 58.41146 | 51.69451 | 34771 ft | 490 kts | 103° |
| 2026-05-05 16:09 | 58.39864 | 51.82188 | 34778 ft | 490 kts | 102° |
| 2026-05-05 16:09 | 58.38591 | 51.94919 | 34772 ft | 489 kts | 102° |
| 2026-05-05 16:10 | 58.37253 | 52.07649 | 34777 ft | 488 kts | 103° |
| 2026-05-05 16:10 | 58.35902 | 52.20291 | 34775 ft | 488 kts | 103° |
| 2026-05-05 16:11 | 58.34540 | 52.32926 | 34785 ft | 488 kts | 103° |
| 2026-05-05 16:12 | 58.31773 | 52.58262 | 34791 ft | 488 kts | 103° |
| 2026-05-05 16:13 | 58.28262 | 52.89727 | 34796 ft | 487 kts | 103° |
| 2026-05-05 16:13 | 58.26832 | 53.02327 | 34794 ft | 487 kts | 103° |
| 2026-05-05 16:14 | 58.23941 | 53.27455 | 34798 ft | 487 kts | 103° |
| 2026-05-05 16:15 | 58.21005 | 53.52504 | 34799 ft | 486 kts | 104° |
| 2026-05-05 16:16 | 58.18025 | 53.77470 | 34798 ft | 485 kts | 104° |
| 2026-05-05 16:17 | 58.15766 | 53.96125 | 34804 ft | 485 kts | 104° |
| 2026-05-05 16:18 | 58.13481 | 54.14790 | 34807 ft | 484 kts | 104° |
| 2026-05-05 16:19 | 58.11187 | 54.33348 | 34809 ft | 483 kts | 104° |
| 2026-05-05 16:19 | 58.08864 | 54.51901 | 34810 ft | 483 kts | 104° |
| 2026-05-05 16:20 | 58.05721 | 54.76645 | 34810 ft | 483 kts | 104° |
| 2026-05-05 16:22 | 58.03397 | 55.08031 | 34815 ft | 484 kts | 98° |
| 2026-05-05 16:23 | 58.01570 | 55.33211 | 34814 ft | 484 kts | 98° |
| 2026-05-05 16:23 | 58.00181 | 55.52061 | 34823 ft | 484 kts | 98° |
| 2026-05-05 16:24 | 57.99241 | 55.64646 | 34827 ft | 484 kts | 98° |
| 2026-05-05 16:25 | 57.97663 | 55.83382 | 34820 ft | 483 kts | 107° |
| 2026-05-05 16:25 | 57.95598 | 55.93090 | 34823 ft | 480 kts | 121° |
| 2026-05-05 16:25 | 57.93789 | 55.98359 | 34839 ft | 478 kts | 126° |
| 2026-05-05 16:26 | 57.87466 | 56.20465 | 34820 ft | 480 kts | 115° |
| 2026-05-05 16:27 | 57.84700 | 56.31795 | 34832 ft | 480 kts | 116° |
| 2026-05-05 16:27 | 57.81851 | 56.43126 | 34832 ft | 480 kts | 116° |
| 2026-05-05 16:28 | 57.78957 | 56.54416 | 34842 ft | 480 kts | 117° |
| 2026-05-05 16:28 | 57.76061 | 56.65629 | 34848 ft | 479 kts | 117° |
| 2026-05-05 16:29 | 57.73160 | 56.76815 | 34850 ft | 479 kts | 117° |
| 2026-05-05 16:29 | 57.70214 | 56.88126 | 34856 ft | 479 kts | 117° |
| 2026-05-05 16:30 | 57.67286 | 56.99317 | 34855 ft | 479 kts | 117° |
| 2026-05-05 16:30 | 57.64348 | 57.10489 | 34855 ft | 479 kts | 117° |
| 2026-05-05 16:31 | 57.61398 | 57.21652 | 34863 ft | 479 kts | 117° |
| 2026-05-05 16:31 | 57.58448 | 57.32765 | 34822 ft | 476 kts | 117° |
| 2026-05-05 16:32 | 57.55727 | 57.44001 | 34854 ft | 476 kts | 113° |
| 2026-05-05 16:32 | 57.53210 | 57.55314 | 34868 ft | 475 kts | 112° |
| 2026-05-05 16:33 | 57.50643 | 57.66731 | 34862 ft | 475 kts | 113° |
| 2026-05-05 16:33 | 57.48033 | 57.78021 | 34869 ft | 475 kts | 114° |
| 2026-05-05 16:34 | 57.45417 | 57.89245 | 34877 ft | 475 kts | 114° |
| 2026-05-05 16:34 | 57.42781 | 58.00526 | 34730 ft | 478 kts | 113° |
| 2026-05-05 16:35 | 57.41446 | 58.06228 | 34483 ft | 478 kts | 113° |
| 2026-05-05 16:35 | 57.40141 | 58.11789 | 34236 ft | 473 kts | 113° |
| 2026-05-05 16:35 | 57.38829 | 58.17368 | 34001 ft | 472 kts | 113° |
| 2026-05-05 16:35 | 57.37514 | 58.22941 | 33756 ft | 471 kts | 113° |
| 2026-05-05 16:36 | 57.36204 | 58.28484 | 33482 ft | 471 kts | 113° |
| 2026-05-05 16:36 | 57.34877 | 58.34080 | 33206 ft | 470 kts | 113° |
| 2026-05-05 16:36 | 57.33559 | 58.39625 | 32531 ft | 471 kts | 113° |
| 2026-05-05 16:36 | 57.32246 | 58.45137 | 31892 ft | 470 kts | 113° |
| 2026-05-05 16:37 | 57.30919 | 58.50692 | 31152 ft | 472 kts | 113° |
| 2026-05-05 16:37 | 57.29598 | 58.56205 | 30442 ft | 473 kts | 113° |
| 2026-05-05 16:37 | 57.28257 | 58.61790 | 29634 ft | 475 kts | 113° |
| 2026-05-05 16:37 | 57.26911 | 58.67382 | 28752 ft | 476 kts | 113° |
| 2026-05-05 16:38 | 57.25568 | 58.72945 | 27911 ft | 476 kts | 113° |
| 2026-05-05 16:38 | 57.24206 | 58.78573 | 27047 ft | 477 kts | 113° |
| 2026-05-05 16:38 | 57.22846 | 58.84178 | 26129 ft | 479 kts | 114° |
| 2026-05-05 16:38 | 57.21486 | 58.89767 | 25251 ft | 480 kts | 114° |
| 2026-05-05 16:39 | 57.20126 | 58.95346 | 24630 ft | 475 kts | 114° |
| 2026-05-05 16:39 | 57.18767 | 59.00903 | 23981 ft | 471 kts | 114° |
| 2026-05-05 16:39 | 57.17440 | 59.06315 | 23312 ft | 467 kts | 114° |
| 2026-05-05 16:39 | 57.16091 | 59.11804 | 22566 ft | 463 kts | 114° |
| 2026-05-05 16:40 | 57.14781 | 59.17121 | 21908 ft | 458 kts | 114° |
| 2026-05-05 16:40 | 57.13455 | 59.22491 | 21243 ft | 453 kts | 114° |
| 2026-05-05 16:40 | 57.12161 | 59.27718 | 20613 ft | 449 kts | 114° |
| 2026-05-05 16:40 | 57.10864 | 59.32946 | 19985 ft | 444 kts | 114° |
| 2026-05-05 16:41 | 57.09589 | 59.38071 | 19369 ft | 440 kts | 114° |
| 2026-05-05 16:41 | 57.08320 | 59.43160 | 18761 ft | 437 kts | 114° |
| 2026-05-05 16:41 | 57.07053 | 59.48229 | 18146 ft | 433 kts | 114° |
| 2026-05-05 16:41 | 57.05800 | 59.53232 | 17458 ft | 430 kts | 114° |
| 2026-05-05 16:42 | 57.04560 | 59.58176 | 16831 ft | 426 kts | 114° |
| 2026-05-05 16:42 | 57.03322 | 59.63096 | 16221 ft | 421 kts | 114° |
| 2026-05-05 16:42 | 57.02097 | 59.67953 | 15623 ft | 418 kts | 114° |
| 2026-05-05 16:42 | 57.00879 | 59.72776 | 15031 ft | 414 kts | 114° |
| 2026-05-05 16:43 | 56.99676 | 59.77524 | 14449 ft | 411 kts | 114° |
| 2026-05-05 16:43 | 56.98476 | 59.82253 | 13873 ft | 407 kts | 114° |
| 2026-05-05 16:43 | 56.97279 | 59.86960 | 13261 ft | 404 kts | 114° |
| 2026-05-05 16:43 | 56.96092 | 59.91622 | 12666 ft | 400 kts | 115° |
| 2026-05-05 16:44 | 56.94922 | 59.96203 | 12107 ft | 396 kts | 115° |
| 2026-05-05 16:44 | 56.93766 | 60.00723 | 11535 ft | 393 kts | 115° |
| 2026-05-05 16:44 | 56.92609 | 60.05236 | 10999 ft | 389 kts | 115° |
| 2026-05-05 16:44 | 56.91482 | 60.09625 | 10881 ft | 374 kts | 115° |
| 2026-05-05 16:45 | 56.90380 | 60.13906 | 10698 ft | 362 kts | 115° |
| 2026-05-05 16:45 | 56.89326 | 60.17995 | 10559 ft | 350 kts | 116° |
| 2026-05-05 16:45 | 56.88307 | 60.21939 | 10421 ft | 339 kts | 116° |
| 2026-05-05 16:46 | 56.87358 | 60.25605 | 10282 ft | 330 kts | 116° |
| 2026-05-05 16:46 | 56.86397 | 60.29313 | 10150 ft | 320 kts | 116° |
| 2026-05-05 16:46 | 56.85452 | 60.32955 | 10020 ft | 311 kts | 116° |
| 2026-05-05 16:47 | 56.84533 | 60.36488 | 9882 ft | 303 kts | 116° |
| 2026-05-05 16:47 | 56.83632 | 60.39947 | 9571 ft | 302 kts | 116° |
| 2026-05-05 16:47 | 56.82730 | 60.43403 | 9266 ft | 299 kts | 116° |
| 2026-05-05 16:47 | 56.81834 | 60.46829 | 8976 ft | 297 kts | 116° |
| 2026-05-05 16:48 | 56.80952 | 60.50199 | 8681 ft | 295 kts | 116° |
| 2026-05-05 16:48 | 56.80062 | 60.53594 | 8391 ft | 293 kts | 116° |
| 2026-05-05 16:48 | 56.79195 | 60.56898 | 8106 ft | 291 kts | 116° |
| 2026-05-05 16:48 | 56.78319 | 60.60231 | 7819 ft | 289 kts | 116° |
| 2026-05-05 16:49 | 56.77452 | 60.63525 | 7543 ft | 288 kts | 116° |
| 2026-05-05 16:49 | 56.76589 | 60.66800 | 7268 ft | 286 kts | 116° |
| 2026-05-05 16:49 | 56.75740 | 60.70015 | 6992 ft | 285 kts | 116° |
| 2026-05-05 16:49 | 56.74872 | 60.73298 | 6706 ft | 283 kts | 116° |
| 2026-05-05 16:50 | 56.74020 | 60.76517 | 6425 ft | 282 kts | 116° |
| 2026-05-05 16:50 | 56.73168 | 60.79732 | 6133 ft | 282 kts | 117° |
| 2026-05-05 16:50 | 56.72322 | 60.82922 | 5841 ft | 281 kts | 117° |
| 2026-05-05 16:50 | 56.71480 | 60.86088 | 5537 ft | 275 kts | 117° |
| 2026-05-05 16:51 | 56.70663 | 60.89162 | 5308 ft | 265 kts | 117° |
| 2026-05-05 16:51 | 56.69874 | 60.92128 | 5048 ft | 258 kts | 117° |
| 2026-05-05 16:51 | 56.69101 | 60.95025 | 4825 ft | 250 kts | 117° |
| 2026-05-05 16:51 | 56.68350 | 60.97833 | 4605 ft | 245 kts | 117° |
| 2026-05-05 16:52 | 56.67608 | 61.00603 | 4486 ft | 243 kts | 117° |
| 2026-05-05 16:52 | 56.66866 | 61.03378 | 4370 ft | 245 kts | 115° |
| 2026-05-05 16:52 | 56.66539 | 61.06391 | 4252 ft | 247 kts | 83° |
| 2026-05-05 16:52 | 56.67128 | 61.09249 | 4167 ft | 242 kts | 50° |
| 2026-05-05 16:53 | 56.68436 | 61.11105 | 4067 ft | 237 kts | 18° |
| 2026-05-05 16:53 | 56.70034 | 61.11604 | 3979 ft | 233 kts | 354° |
| 2026-05-05 16:53 | 56.71527 | 61.10626 | 3734 ft | 229 kts | 315° |
| 2026-05-05 16:53 | 56.72395 | 61.08297 | 3546 ft | 225 kts | 293° |
| 2026-05-05 16:54 | 56.72953 | 61.05627 | 3272 ft | 223 kts | 283° |
| 2026-05-05 16:54 | 56.73238 | 61.02885 | 2992 ft | 218 kts | 277° |
| 2026-05-05 16:54 | 56.73374 | 61.00203 | 2701 ft | 206 kts | 273° |
| 2026-05-05 16:54 | 56.73463 | 60.97674 | 2427 ft | 194 kts | 273° |
| 2026-05-05 16:55 | 56.73551 | 60.95297 | 2165 ft | 183 kts | 273° |
| 2026-05-05 16:55 | 56.73636 | 60.93072 | 1965 ft | 169 kts | 273° |
| 2026-05-05 16:55 | 56.73715 | 60.91039 | 1738 ft | 155 kts | 272° |
| 2026-05-05 16:55 | 56.73788 | 60.89142 | 1536 ft | 149 kts | 273° |
| 2026-05-05 16:56 | 56.73861 | 60.87265 | 1333 ft | 150 kts | 273° |
| 2026-05-05 16:56 | 56.73929 | 60.85358 | 1119 ft | 151 kts | 274° |
| 2026-05-05 16:56 | 56.74008 | 60.83459 | 932 ft | 149 kts | 273° |
| 2026-05-05 16:56 | 56.74084 | 60.81578 | 775 ft | 144 kts | 274° |
| 2026-05-05 16:57 | 56.74148 | 60.79992 | 773 ft | 104 kts | 274° |
| 2026-05-05 16:57 | 56.74192 | 60.78941 | 773 ft | 61 kts | 274° |
| 2026-05-05 16:57 | 56.74211 | 60.78439 | 773 ft | 25 kts | 274° |
| 2026-05-05 16:57 | 56.74222 | 60.78171 | 773 ft | 10 kts | 274° |
| 2026-05-05 16:58 | 56.74228 | 60.78044 | 773 ft | 10 kts | 278° |
| 2026-05-05 16:58 | 56.74283 | 60.78014 | 773 ft | 10 kts | 27° |
| 2026-05-05 16:58 | 56.74344 | 60.78064 | 773 ft | 9 kts | 22° |
| 2026-05-05 16:58 | 56.74404 | 60.78111 | 773 ft | 9 kts | 27° |
| 2026-05-05 16:59 | 56.74463 | 60.78149 | 772 ft | 9 kts | 4° |
| 2026-05-05 16:59 | 56.74524 | 60.78148 | 772 ft | 9 kts | 359° |
| 2026-05-05 16:59 | 56.74584 | 60.78148 | 772 ft | 8 kts | 0° |
| 2026-05-05 16:59 | 56.74642 | 60.78148 | 772 ft | 8 kts | 0° |
| 2026-05-05 17:00 | 56.74704 | 60.78148 | 772 ft | 9 kts | 0° |
| 2026-05-05 17:00 | 56.74777 | 60.78149 | 772 ft | 12 kts | 0° |
| 2026-05-05 17:00 | 56.74855 | 60.78197 | 772 ft | 13 kts | 71° |
| 2026-05-05 17:00 | 56.74856 | 60.78383 | 772 ft | 16 kts | 91° |
| 2026-05-05 17:01 | 56.74855 | 60.78602 | 773 ft | 18 kts | 90° |
| 2026-05-05 17:01 | 56.74855 | 60.78830 | 773 ft | 18 kts | 90° |
| 2026-05-05 17:01 | 56.74857 | 60.79052 | 773 ft | 17 kts | 90° |
| 2026-05-05 17:01 | 56.74856 | 60.79267 | 773 ft | 17 kts | 89° |
| 2026-05-05 17:02 | 56.74857 | 60.79472 | 772 ft | 16 kts | 90° |
| 2026-05-05 17:02 | 56.74854 | 60.79672 | 772 ft | 15 kts | 95° |
| 2026-05-05 17:02 | 56.74853 | 60.79837 | 772 ft | 12 kts | 90° |
| 2026-05-05 17:02 | 56.74853 | 60.79986 | 772 ft | 8 kts | 89° |
| 2026-05-05 17:03 | 56.74891 | 60.80046 | 772 ft | 8 kts | 4° |
| 2026-05-05 17:03 | 56.74925 | 60.80046 | 772 ft | 1 kts | 2° |
| 2026-05-05 17:03 | 56.74929 | 60.80046 | 772 ft | 0 kts | 360° |